Time;durP1;ratioP1;P1;durP2;ratioP2;P2;SDS_P1;SDS_P2;PMS_P1;PMS_P2;Temp;Humidity;BMP_temperature;BMP_pressure;BME280_temperature;BME280_humidity;BME280_pressure;Samples;Min_cycle;Max_cycle;Signal;HPM_P1;HPM_P2
2021/11/10 00:01:23;;;;;;;17.33;8.20;;;;;;;-1.66;100.00;96288.69;5021887;28;20495;-77
2021/11/10 00:03:48;;;;;;;20.23;8.00;;;;;;;-1.68;100.00;96295.81;5022076;28;20053;-77
2021/11/10 00:06:14;;;;;;;16.80;7.50;;;;;;;-1.69;100.00;96289.03;5030254;28;20507;-77
2021/11/10 00:08:40;;;;;;;18.55;7.78;;;;;;;-1.77;100.00;96281.34;5031364;28;20467;-77
2021/11/10 00:11:05;;;;;;;15.52;7.93;;;;;;;-1.89;100.00;96280.16;5031677;28;20042;-78
2021/11/10 00:13:31;;;;;;;19.88;7.85;;;;;;;-1.99;100.00;96273.44;5029141;28;20551;-77
2021/11/10 00:15:57;;;;;;;18.55;8.27;;;;;;;-1.99;100.00;96283.75;5019487;28;20046;-77
2021/11/10 00:18:22;;;;;;;15.60;7.55;;;;;;;-2.00;100.00;96282.13;5031729;28;20050;-78
2021/11/10 00:20:49;;;;;;;18.92;8.20;;;;;;;-2.02;100.00;96286.69;5031897;28;20052;-77
2021/11/10 00:23:15;;;;;;;21.60;8.85;;;;;;;-2.11;100.00;96282.56;5018470;28;20105;-78
2021/11/10 00:25:41;;;;;;;19.67;8.48;;;;;;;-2.22;100.00;96267.47;5030292;28;20044;-77
2021/11/10 00:28:07;;;;;;;20.08;9.05;;;;;;;-2.21;100.00;96279.38;5029842;28;20042;-77
2021/11/10 00:30:33;;;;;;;16.65;8.02;;;;;;;-2.18;100.00;96284.22;5031949;28;20050;-77
2021/11/10 00:32:59;;;;;;;19.17;8.18;;;;;;;-2.17;100.00;96270.31;5027477;28;20139;-77
2021/11/10 00:35:25;;;;;;;15.93;7.82;;;;;;;-2.06;100.00;96272.50;5022621;28;20065;-77
2021/11/10 00:37:50;;;;;;;15.85;8.23;;;;;;;-2.17;100.00;96270.31;5023584;28;20764;-78
2021/11/10 00:40:16;;;;;;;18.67;8.57;;;;;;;-2.15;100.00;96268.38;5031116;28;20045;-77
2021/11/10 00:42:42;;;;;;;16.67;7.90;;;;;;;-2.11;100.00;96261.91;5030338;28;20053;-77
2021/11/10 00:45:08;;;;;;;17.50;7.97;;;;;;;-2.02;100.00;96267.81;5029525;28;20061;-78
2021/11/10 00:47:34;;;;;;;18.52;8.68;;;;;;;-1.96;100.00;96262.75;5029702;28;20044;-77
2021/11/10 00:50:00;;;;;;;17.90;8.13;;;;;;;-2.08;100.00;96264.16;5021840;28;20037;-77
2021/11/10 00:52:26;;;;;;;18.98;7.68;;;;;;;-2.11;100.00;96264.50;5025937;28;20051;-77
2021/11/10 00:54:52;;;;;;;19.10;8.27;;;;;;;-2.22;100.00;96262.31;5027642;28;20156;-77
2021/11/10 00:57:18;;;;;;;16.95;7.93;;;;;;;-2.22;100.00;96254.56;5030644;28;20041;-77
2021/11/10 00:59:44;;;;;;;20.88;8.23;;;;;;;-2.40;100.00;96258.19;5022262;28;20046;-77
2021/11/10 01:02:10;;;;;;;17.48;7.65;;;;;;;-2.20;100.00;96250.03;5030534;28;20049;-77
2021/11/10 01:04:36;;;;;;;18.10;8.02;;;;;;;-2.13;100.00;96245.78;5027631;28;20041;-77
2021/11/10 01:07:02;;;;;;;15.70;7.50;;;;;;;-2.09;100.00;96247.84;5028483;28;20095;-78
2021/11/10 01:09:27;;;;;;;15.57;8.00;;;;;;;-2.10;100.00;96253.19;5024079;28;20045;-77
2021/11/10 01:11:53;;;;;;;15.23;7.63;;;;;;;-2.13;100.00;96245.78;5009008;28;20559;-77
2021/11/10 01:14:19;;;;;;;15.70;7.38;;;;;;;-2.11;100.00;96249.03;5017973;28;20045;-77
2021/11/10 01:16:46;;;;;;;19.48;8.15;;;;;;;-2.25;100.00;96247.97;5029569;28;20132;-77
2021/11/10 01:19:12;;;;;;;15.35;7.85;;;;;;;-2.25;100.00;96252.34;5022907;28;20050;-77
2021/11/10 01:21:38;;;;;;;14.65;7.68;;;;;;;-2.22;100.00;96254.56;5027313;28;20196;-77
2021/11/10 01:24:04;;;;;;;13.85;7.03;;;;;;;-2.31;100.00;96259.75;5029092;28;20569;-77
2021/11/10 01:26:29;;;;;;;15.88;6.88;;;;;;;-2.16;100.00;96251.31;5029292;28;20041;-77
2021/11/10 01:28:55;;;;;;;13.90;7.22;;;;;;;-2.20;100.00;96247.44;5029589;28;20045;-77
2021/11/10 01:31:21;;;;;;;14.57;7.47;;;;;;;-2.21;100.00;96241.50;5030336;28;20124;-78
2021/11/10 01:33:46;;;;;;;15.85;7.63;;;;;;;-2.33;100.00;96246.25;5026822;28;20046;-77
2021/11/10 01:36:13;;;;;;;20.52;7.85;;;;;;;-2.39;100.00;96240.97;5023526;28;20045;-77
2021/11/10 01:38:38;;;;;;;16.83;7.57;;;;;;;-2.21;100.00;96243.25;5028261;28;20459;-77
2021/11/10 01:41:04;;;;;;;17.63;8.45;;;;;;;-2.45;100.00;96238.06;5018524;28;20045;-77
2021/11/10 01:43:31;;;;;;;14.63;7.13;;;;;;;-2.30;100.00;96240.75;5021255;28;20041;-77
2021/11/10 01:45:57;;;;;;;20.05;7.88;;;;;;;-2.40;100.00;96245.28;5028075;28;20129;-77
2021/11/10 01:48:23;;;;;;;16.92;7.78;;;;;;;-2.77;100.00;96239.03;5027213;28;20046;-77
2021/11/10 01:50:49;;;;;;;16.13;7.45;;;;;;;-2.69;100.00;96246.72;5021362;28;20087;-77
2021/11/10 01:53:15;;;;;;;19.77;8.20;;;;;;;-2.44;100.00;96238.91;5027570;28;20041;-77
2021/11/10 01:55:41;;;;;;;17.98;7.50;;;;;;;-2.44;100.00;96236.31;5019633;28;20585;-77
2021/11/10 01:58:07;;;;;;;20.42;8.30;;;;;;;-2.45;100.00;96234.72;5026755;28;20499;-77
2021/11/10 02:00:36;;;;;;;24.45;8.80;;;;;;;-2.59;100.00;96225.91;5026829;28;20053;-77
2021/11/10 02:03:02;;;;;;;19.58;7.93;;;;;;;-2.69;100.00;96220.97;5027886;28;20052;-77
2021/11/10 02:05:28;;;;;;;18.50;8.60;;;;;;;-2.62;100.00;96232.19;5021383;28;20494;-77
2021/11/10 02:07:54;;;;;;;19.35;8.43;;;;;;;-2.36;100.00;96236.25;5026670;28;20499;-77
2021/11/10 02:10:26;;;;;;;16.77;8.10;;;;;;;-2.19;100.00;96241.34;5028675;28;20048;-77
2021/11/10 02:12:57;;;;;;;16.67;7.43;;;;;;;-2.20;100.00;96235.34;5028094;28;20585;-77
2021/11/10 02:15:23;;;;;;;20.00;7.53;;;;;;;-2.46;100.00;96230.53;5028783;28;20056;-77
2021/11/10 02:17:51;;;;;;;18.42;7.88;;;;;;;-2.37;100.00;96239.81;5029053;28;20045;-77
2021/11/10 02:20:18;;;;;;;17.95;7.68;;;;;;;-2.40;100.00;96240.13;5043964;28;20041;-77
2021/11/10 02:22:44;;;;;;;14.77;7.25;;;;;;;-2.28;100.00;96233.63;5027628;28;20046;-77
2021/11/10 02:25:12;;;;;;;14.27;7.10;;;;;;;-2.25;100.00;96231.72;5021996;28;20045;-77
2021/11/10 02:27:38;;;;;;;14.05;6.88;;;;;;;-2.34;100.00;96229.16;5008729;28;20100;-77
2021/11/10 02:30:17;;;;;;;19.23;8.02;;;;;;;-2.49;100.00;96230.84;5019759;28;20045;-77
2021/11/10 02:32:57;;;;;;;13.20;7.80;;;;;;;-2.45;100.00;96226.97;5029092;28;20056;-77
2021/11/10 02:35:25;;;;;;;14.00;7.00;;;;;;;-2.19;100.00;96225.84;5027284;28;20061;-77
2021/11/10 02:38:13;;;;;;;15.77;7.43;;;;;;;-2.13;100.00;96230.31;5028424;28;20515;-77
2021/11/10 02:40:39;;;;;;;15.20;7.60;;;;;;;-2.36;100.00;96231.09;5042121;28;20392;-77
2021/11/10 02:43:04;;;;;;;17.13;7.30;;;;;;;-2.23;100.00;96240.84;5028652;28;20525;-77
2021/11/10 02:45:30;;;;;;;16.83;7.88;;;;;;;-2.32;100.00;96229.78;5022256;28;20046;-77
2021/11/10 02:47:57;;;;;;;16.60;7.45;;;;;;;-2.32;100.00;96229.78;5028287;28;20073;-77
2021/11/10 02:50:28;;;;;;;17.23;7.47;;;;;;;-2.64;100.00;96223.06;5027067;28;20060;-77
2021/11/10 02:52:53;;;;;;;17.77;8.18;;;;;;;-2.47;100.00;96219.41;5027361;28;20052;-77
2021/11/10 02:55:19;;;;;;;17.05;7.68;;;;;;;-2.22;100.00;96221.06;5028480;28;20049;-77
2021/11/10 02:57:44;;;;;;;15.55;6.85;;;;;;;-2.34;100.00;96218.84;5024518;28;20045;-77
2021/11/10 03:00:13;;;;;;;18.65;6.97;;;;;;;-2.27;100.00;96214.63;5016253;28;20114;-77
2021/11/10 03:02:39;;;;;;;19.23;7.55;;;;;;;-2.23;99.55;96215.06;5027757;28;20049;-77
2021/11/10 03:05:06;;;;;;;13.27;7.50;;;;;;;-2.42;100.00;96211.16;5021577;28;20069;-77
2021/11/10 03:07:32;;;;;;;14.80;7.95;;;;;;;-2.68;100.00;96196.00;5027484;28;20069;-77
2021/11/10 03:09:58;;;;;;;15.80;7.43;;;;;;;-2.44;100.00;96213.91;5031559;28;20064;-77
2021/11/10 03:12:23;;;;;;;15.68;8.00;;;;;;;-2.46;100.00;96215.88;5031292;28;20046;-77
2021/11/10 03:14:49;;;;;;;16.67;8.38;;;;;;;-2.61;100.00;96213.19;5030483;28;20047;-77
2021/11/10 03:17:18;;;;;;;18.88;8.05;;;;;;;-2.76;100.00;96204.56;5031816;28;20041;-77
2021/11/10 03:19:44;;;;;;;15.18;7.45;;;;;;;-2.50;100.00;96214.59;5028498;28;20057;-77
2021/11/10 03:22:12;;;;;;;15.63;6.85;;;;;;;-2.45;100.00;96206.34;5029230;28;20053;-77
2021/11/10 03:24:37;;;;;;;15.07;7.38;;;;;;;-2.45;100.00;96211.50;5030280;28;20088;-77
2021/11/10 03:27:03;;;;;;;17.67;7.95;;;;;;;-2.48;100.00;96207.50;5026079;28;20057;-77
2021/11/10 03:29:30;;;;;;;16.95;7.93;;;;;;;-2.53;100.00;96211.53;5031171;28;20045;-77
2021/11/10 03:31:55;;;;;;;15.63;8.00;;;;;;;-2.56;100.00;96202.38;5029197;28;20444;-77
2021/11/10 03:34:21;;;;;;;14.77;7.10;;;;;;;-2.64;100.00;96198.06;5030342;28;20076;-77
2021/11/10 03:36:48;;;;;;;14.45;7.47;;;;;;;-2.59;100.00;96199.34;5022863;28;20412;-77
2021/11/10 03:39:16;;;;;;;14.73;6.95;;;;;;;-2.56;100.00;96194.66;5016365;28;20050;-77
2021/11/10 03:41:42;;;;;;;17.88;7.60;;;;;;;-2.56;100.00;96188.69;5021650;28;20118;-77
2021/11/10 03:44:09;;;;;;;16.35;7.50;;;;;;;-2.93;100.00;96182.44;5029559;28;20694;-77
2021/11/10 03:46:37;;;;;;;19.23;8.52;;;;;;;-3.03;100.00;96183.44;5037141;28;20048;-77
2021/11/10 03:49:03;;;;;;;16.55;7.97;;;;;;;-2.76;100.00;96189.09;5030705;28;20466;-77
2021/11/10 03:51:28;;;;;;;14.38;7.10;;;;;;;-2.65;100.00;96186.16;5034321;28;20128;-77
2021/11/10 03:53:54;;;;;;;17.77;7.82;;;;;;;-2.66;100.00;96189.72;5028801;28;20034;-77
2021/11/10 03:56:20;;;;;;;21.42;8.55;;;;;;;-2.81;100.00;96193.97;5028924;28;20041;-77
2021/11/10 03:58:46;;;;;;;14.95;7.05;;;;;;;-2.56;100.00;96188.69;5019607;28;20133;-77
2021/11/10 04:01:13;;;;;;;16.50;7.65;;;;;;;-2.58;100.00;96190.66;5019712;28;20041;-77
2021/11/10 04:03:40;;;;;;;19.13;8.07;;;;;;;-2.83;100.00;96178.69;5029552;28;20120;-77
2021/11/10 04:06:06;;;;;;;18.40;8.52;;;;;;;-2.80;100.00;96182.72;5024725;28;20383;-77
2021/11/10 04:08:32;;;;;;;15.75;7.82;;;;;;;-2.63;100.00;96194.53;5030207;28;20049;-77
2021/11/10 04:11:00;;;;;;;20.40;8.20;;;;;;;-2.63;100.00;96188.56;5030146;28;20046;-77
2021/11/10 04:13:27;;;;;;;16.48;8.10;;;;;;;-2.83;100.00;96188.19;5029570;28;20099;-77
2021/11/10 04:15:53;;;;;;;19.92;8.07;;;;;;;-2.92;100.00;96191.78;5012784;28;20044;-77
2021/11/10 04:18:18;;;;;;;19.13;8.20;;;;;;;-2.75;100.00;96185.56;5030117;28;20045;-77
2021/11/10 04:20:44;;;;;;;17.45;8.13;;;;;;;-2.69;100.00;96195.19;5029858;28;20092;-77
2021/11/10 04:23:10;;;;;;;14.88;7.40;;;;;;;-2.65;100.00;96191.31;5028859;28;20060;-77
2021/11/10 04:25:35;;;;;;;18.15;8.05;;;;;;;-2.87;100.00;96192.09;5025453;28;20042;-77
2021/11/10 04:28:01;;;;;;;18.08;8.07;;;;;;;-2.90;100.00;96187.25;5028751;28;20046;-76
2021/11/10 04:30:27;;;;;;;14.40;7.65;;;;;;;-2.57;100.00;96197.38;5030126;28;20073;-77
2021/11/10 04:32:52;;;;;;;18.42;7.85;;;;;;;-2.42;100.00;96195.69;5029803;28;20046;-77
2021/11/10 04:35:18;;;;;;;14.68;7.07;;;;;;;-2.35;100.00;96196.63;5034023;28;20096;-77
2021/11/10 04:37:44;;;;;;;16.77;7.38;;;;;;;-2.40;100.00;96198.91;5030146;28;20609;-77
2021/11/10 04:40:11;;;;;;;15.77;7.70;;;;;;;-2.49;100.00;96205.09;5029658;28;20045;-77
2021/11/10 04:42:38;;;;;;;14.00;6.95;;;;;;;-2.33;100.00;96210.16;5020033;28;20057;-77
2021/11/10 04:45:08;;;;;;;15.18;7.30;;;;;;;-2.33;100.00;96210.16;5022613;28;20060;-77
2021/11/10 04:47:35;;;;;;;14.50;7.32;;;;;;;-2.40;100.00;96204.06;5026684;28;20057;-77
2021/11/10 04:50:01;;;;;;;18.65;7.85;;;;;;;-2.44;100.00;96207.97;5028506;28;20514;-77
2021/11/10 04:52:26;;;;;;;15.30;8.05;;;;;;;-2.31;100.00;96207.41;5028374;28;20103;-77
2021/11/10 04:54:53;;;;;;;16.25;7.05;;;;;;;-2.34;100.00;96202.56;5029692;28;20045;-77
2021/11/10 04:57:19;;;;;;;17.27;7.60;;;;;;;-2.47;100.00;96197.97;5028247;28;20076;-77
2021/11/10 04:59:45;;;;;;;18.42;8.10;;;;;;;-2.71;100.00;96199.72;5021052;28;20091;-77
2021/11/10 05:04:38;;;;;;;13.48;6.90;;;;;;;-2.49;100.00;96202.50;5028767;28;20055;-77
2021/11/10 05:07:05;;;;;;;15.18;7.60;;;;;;;-2.55;100.00;96185.16;5028887;28;20093;-77
2021/11/10 05:09:30;;;;;;;14.38;6.80;;;;;;;-2.60;100.00;96188.25;5012476;28;20050;-77
2021/11/10 05:11:56;;;;;;;18.25;7.90;;;;;;;-2.73;100.00;96183.66;5020906;28;20049;-77
2021/11/10 05:14:23;;;;;;;20.08;8.05;;;;;;;-2.76;100.00;96178.81;5028201;28;20042;-77
2021/11/10 05:16:49;;;;;;;17.65;7.47;;;;;;;-2.54;100.00;96176.44;5028514;28;20045;-77
2021/11/10 05:19:15;;;;;;;13.52;6.95;;;;;;;-2.37;100.00;96172.81;5028024;28;20053;-77
2021/11/10 05:21:41;;;;;;;16.20;7.38;;;;;;;-2.19;100.00;96176.88;5027283;28;20115;-77
2021/11/10 05:24:07;;;;;;;16.60;7.32;;;;;;;-2.25;100.00;96172.41;5028626;28;20465;-77
2021/11/10 05:26:33;;;;;;;18.58;8.43;;;;;;;-2.45;100.00;96185.72;5029298;28;20053;-77
2021/11/10 05:28:59;;;;;;;20.70;7.75;;;;;;;-2.31;100.00;96197.88;5028875;28;20052;-77
2021/11/10 05:31:24;;;;;;;16.85;7.72;;;;;;;-2.16;100.00;96189.41;5028318;28;20410;-77
2021/11/10 05:33:50;;;;;;;15.60;7.75;;;;;;;-2.09;100.00;96190.31;5034845;28;20050;-77
2021/11/10 05:36:16;;;;;;;16.58;7.72;;;;;;;-2.09;100.00;96195.47;5045108;28;20052;-77
2021/11/10 05:38:42;;;;;;;18.45;7.43;;;;;;;-2.02;100.00;96201.56;5031003;28;20037;-76
2021/11/10 05:41:07;;;;;;;15.68;7.63;;;;;;;-1.98;100.00;96207.19;5032747;28;20121;-77
2021/11/10 05:43:34;;;;;;;15.90;7.97;;;;;;;-2.12;100.00;96201.00;5026857;28;20060;-77
2021/11/10 05:46:00;;;;;;;18.48;8.10;;;;;;;-2.17;100.00;96183.47;5025879;28;20047;-77
2021/11/10 05:48:27;;;;;;;15.73;7.75;;;;;;;-2.29;100.00;96193.34;5046830;28;20041;-77
2021/11/10 05:50:53;;;;;;;15.80;7.38;;;;;;;-2.29;100.00;96190.78;5049464;28;20044;-77
2021/11/10 05:53:19;;;;;;;14.70;7.40;;;;;;;-2.27;100.00;96188.03;5043667;28;20081;-77
2021/11/10 05:55:45;;;;;;;13.23;6.68;;;;;;;-2.34;100.00;96193.06;5041058;28;20061;-76
2021/11/10 05:58:11;;;;;;;17.38;7.30;;;;;;;-2.40;100.00;96198.09;5056988;28;20045;-76
2021/11/10 06:00:37;;;;;;;17.90;7.38;;;;;;;-2.44;100.00;96197.66;5057436;28;20069;-76
2021/11/10 06:03:03;;;;;;;15.13;7.57;;;;;;;-2.28;100.00;96197.53;5057232;28;20060;-77
2021/11/10 06:05:28;;;;;;;20.48;7.88;;;;;;;-2.11;100.00;96197.44;5057425;28;20029;-76
2021/11/10 06:07:56;;;;;;;17.23;8.10;;;;;;;-2.12;100.00;96199.19;5057508;28;20098;-76
2021/11/10 06:10:22;;;;;;;15.95;7.47;;;;;;;-2.23;100.00;96203.97;5056721;28;20029;-76
2021/11/10 06:12:49;;;;;;;19.50;8.05;;;;;;;-2.28;100.00;96205.28;5057113;28;20026;-76
2021/11/10 06:15:15;;;;;;;17.33;7.95;;;;;;;-2.38;100.00;96207.28;5057328;28;20033;-76
2021/11/10 06:17:41;;;;;;;16.42;7.93;;;;;;;-2.30;100.00;96206.41;5074198;28;20051;-76
2021/11/10 06:20:08;;;;;;;14.80;7.45;;;;;;;-2.32;100.00;96211.75;5073673;28;20033;-75
2021/11/10 06:22:34;;;;;;;17.52;7.95;;;;;;;-2.42;100.00;96213.75;5072832;28;20052;-76
2021/11/10 06:25:00;;;;;;;15.75;8.05;;;;;;;-2.61;100.00;96213.19;5040651;28;20046;-77
2021/11/10 06:27:25;;;;;;;18.65;8.63;;;;;;;-2.74;100.00;96218.09;5023057;28;20495;-77
2021/11/10 06:29:52;;;;;;;16.65;7.75;;;;;;;-2.61;100.00;96218.34;5013128;28;20044;-77
2021/11/10 06:32:17;;;;;;;15.63;7.40;;;;;;;-2.56;100.00;96224.78;5020182;28;20052;-77
2021/11/10 06:34:44;;;;;;;18.75;8.13;;;;;;;-2.53;100.00;96221.84;5027869;28;20050;-77
2021/11/10 06:37:09;;;;;;;16.92;8.20;;;;;;;-2.37;100.00;96224.38;5027523;28;20049;-77
2021/11/10 06:39:34;;;;;;;14.02;7.18;;;;;;;-2.43;100.00;96227.59;5027585;28;20526;-77
2021/11/10 06:42:00;;;;;;;16.40;7.63;;;;;;;-2.46;100.00;96222.78;5028131;28;20042;-77
2021/11/10 06:44:26;;;;;;;18.88;8.25;;;;;;;-2.40;100.00;96234.97;5031312;28;20045;-77
2021/11/10 06:46:51;;;;;;;23.65;8.52;;;;;;;-2.36;100.00;96232.88;5030177;28;20607;-77
2021/11/10 06:49:17;;;;;;;25.70;9.55;;;;;;;-2.40;100.00;96227.25;5031460;28;20487;-77
2021/11/10 06:51:43;;;;;;;19.42;8.45;;;;;;;-2.37;100.00;96229.53;5030880;28;20558;-77
2021/11/10 06:54:09;;;;;;;25.27;8.55;;;;;;;-2.06;100.00;96231.25;5024863;28;20052;-77
2021/11/10 06:56:34;;;;;;;19.08;8.68;;;;;;;-1.99;100.00;96224.41;5017939;28;20037;-77
2021/11/10 06:59:00;;;;;;;21.17;8.73;;;;;;;-2.01;100.00;96239.28;5031636;28;20041;-77
2021/11/10 07:01:26;;;;;;;17.88;7.93;;;;;;;-2.02;100.00;96235.09;5030780;28;20522;-77
2021/11/10 07:03:52;;;;;;;22.08;8.40;;;;;;;-2.01;100.00;96238.47;5023683;28;20565;-76
2021/11/10 07:06:18;;;;;;;23.23;8.43;;;;;;;-1.99;100.00;96221.84;5028552;28;20121;-77
2021/11/10 07:08:44;;;;;;;20.35;8.25;;;;;;;-1.84;100.00;96224.50;5024391;28;20093;-77
2021/11/10 07:11:10;;;;;;;20.77;8.68;;;;;;;-1.72;100.00;96221.47;5030407;28;20046;-77
2021/11/10 07:13:36;;;;;;;28.42;9.13;;;;;;;-1.81;100.00;96224.13;5019065;28;20041;-77
2021/11/10 07:16:03;;;;;;;19.02;8.60;;;;;;;-1.77;100.00;96240.06;5031327;28;20076;-77
2021/11/10 07:18:29;;;;;;;21.83;9.43;;;;;;;-1.51;100.00;96239.66;5030867;28;20045;-77
2021/11/10 07:20:55;;;;;;;21.85;9.23;;;;;;;-1.36;100.00;96231.97;5030310;28;20041;-77
2021/11/10 07:23:21;;;;;;;18.92;8.55;;;;;;;-1.31;100.00;96234.81;5027782;28;20641;-77
2021/11/10 07:25:47;;;;;;;20.05;8.65;;;;;;;-1.37;100.00;96234.72;5024576;28;20046;-77
2021/11/10 07:28:12;;;;;;;19.25;8.95;;;;;;;-1.38;100.00;96231.31;5030410;28;20041;-76
2021/11/10 07:30:38;;;;;;;17.50;7.82;;;;;;;-1.37;100.00;96230.34;5030178;28;20041;-77
2021/11/10 07:33:04;;;;;;;24.23;9.05;;;;;;;-1.34;100.00;96240.34;5029849;28;20045;-76
2021/11/10 07:35:30;;;;;;;22.23;9.77;;;;;;;-1.40;100.00;96230.72;5021931;28;20049;-77
2021/11/10 07:37:56;;;;;;;21.10;9.38;;;;;;;-0.83;100.00;96241.41;5026568;28;20103;-76
2021/11/10 07:40:24;;;;;;;18.80;7.75;;;;;;;-0.94;100.00;96240.91;5028270;28;20057;-77
2021/11/10 07:42:51;;;;;;;26.80;9.38;;;;;;;-1.05;100.00;96238.75;5027014;28;20046;-77
2021/11/10 07:45:36;;;;;;;23.48;9.18;;;;;;;-0.88;100.00;96235.03;5025249;28;20503;-77
2021/11/10 07:48:06;;;;;;;21.95;9.50;;;;;;;-0.92;100.00;96233.78;5022635;28;20061;-79
2021/11/10 07:50:33;;;;;;;19.38;8.68;;;;;;;-0.75;100.00;96241.34;5025955;28;20033;-79
2021/11/10 07:53:00;;;;;;;20.33;8.65;;;;;;;-0.58;100.00;96234.97;5024258;28;20030;-77
2021/11/10 07:55:27;;;;;;;22.33;9.85;;;;;;;-0.62;100.00;96233.72;5027164;28;20783;-77
2021/11/10 07:57:53;;;;;;;25.55;9.02;;;;;;;-0.80;100.00;96230.75;5022619;28;20045;-77
2021/11/10 08:00:22;;;;;;;18.88;8.32;;;;;;;-0.56;100.00;96227.84;5025703;28;20060;-77
2021/11/10 08:02:48;;;;;;;16.15;7.78;;;;;;;-0.36;100.00;96237.59;5023377;28;20115;-77
2021/11/10 08:05:14;;;;;;;18.17;8.25;;;;;;;-0.30;100.00;96230.91;5028857;28;20066;-77
2021/11/10 08:07:40;;;;;;;16.17;8.52;;;;;;;-0.29;100.00;96233.31;5026865;28;20045;-77
2021/11/10 08:10:08;;;;;;;15.80;8.02;;;;;;;-0.24;100.00;96231.00;5021604;28;20049;-77
2021/11/10 08:12:36;;;;;;;17.35;8.75;;;;;;;-0.15;100.00;96223.91;5023177;28;20775;-76
2021/11/10 08:15:07;;;;;;;16.77;8.30;;;;;;;-0.01;100.00;96224.84;5027520;28;20400;-77
2021/11/10 08:17:35;;;;;;;17.83;8.90;;;;;;;-0.16;100.00;96221.50;5030110;28;20037;-77
2021/11/10 08:20:07;;;;;;;18.08;8.32;;;;;;;-0.08;100.00;96221.41;5029312;28;20049;-77
2021/11/10 08:22:32;;;;;;;16.70;7.72;;;;;;;0.09;100.00;96220.16;5028380;28;20125;-77
2021/11/10 08:24:59;;;;;;;13.82;7.72;;;;;;;0.37;100.00;96227.16;5027690;28;20045;-77
2021/11/10 08:27:24;;;;;;;17.38;7.35;;;;;;;0.65;100.00;96223.81;5020761;28;20053;-77
2021/11/10 08:29:50;;;;;;;16.30;7.57;;;;;;;0.75;100.00;96224.25;5029380;28;20392;-77
2021/11/10 08:32:16;;;;;;;13.90;7.00;;;;;;;0.98;100.00;96228.41;5027667;28;20061;-77
2021/11/10 08:34:41;;;;;;;14.20;6.78;;;;;;;1.13;99.52;96221.28;5018795;28;20065;-77
2021/11/10 08:37:07;;;;;;;17.55;7.18;;;;;;;1.13;99.84;96231.66;5024196;28;20057;-77
2021/11/10 08:39:33;;;;;;;15.30;6.88;;;;;;;1.36;99.59;96220.19;5028722;28;20102;-77
2021/11/10 08:42:00;;;;;;;16.58;7.32;;;;;;;1.43;99.32;96225.41;5027908;28;20061;-76
2021/11/10 08:44:26;;;;;;;17.83;7.40;;;;;;;1.45;99.21;96221.63;5021899;28;20037;-76
2021/11/10 08:46:54;;;;;;;13.68;7.00;;;;;;;1.73;97.62;96225.91;5027906;28;20064;-76
2021/11/10 08:49:20;;;;;;;15.30;6.88;;;;;;;1.81;97.68;96217.97;5025171;28;20044;-76
2021/11/10 08:51:46;;;;;;;11.73;6.25;;;;;;;2.03;95.51;96225.59;5027891;28;20057;-76
2021/11/10 08:54:11;;;;;;;12.45;6.32;;;;;;;2.18;95.05;96223.59;5028053;28;20458;-77
2021/11/10 08:56:39;;;;;;;18.45;6.50;;;;;;;2.20;95.21;96221.59;5023745;28;20491;-76
2021/11/10 08:59:05;;;;;;;14.10;6.88;;;;;;;2.12;96.15;96213.22;5027760;28;20049;-76
2021/11/10 09:01:32;;;;;;;13.38;7.00;;;;;;;2.53;95.21;96215.63;5027737;28;20848;-76
2021/11/10 09:03:58;;;;;;;15.00;6.18;;;;;;;2.75;94.09;96207.59;5027780;28;20055;-77
2021/11/10 09:06:24;;;;;;;12.05;5.85;;;;;;;2.63;94.52;96204.00;5028235;28;20042;-76
2021/11/10 09:08:49;;;;;;;13.75;6.85;;;;;;;2.63;95.10;96204.00;5020154;28;20061;-76
2021/11/10 09:11:15;;;;;;;14.43;6.28;;;;;;;3.00;94.59;96204.34;5020751;28;20044;-77
2021/11/10 09:13:41;;;;;;;14.93;6.72;;;;;;;3.24;93.60;96206.28;5028467;28;20127;-77
2021/11/10 09:16:06;;;;;;;14.20;6.60;;;;;;;3.44;93.13;96210.63;5029068;28;20046;-77
2021/11/10 09:18:32;;;;;;;16.35;6.35;;;;;;;3.52;92.15;96217.38;5019487;28;20037;-77
2021/11/10 09:20:58;;;;;;;10.50;6.03;;;;;;;3.59;91.29;96218.16;5028043;28;20128;-76
2021/11/10 09:23:23;;;;;;;12.70;5.95;;;;;;;3.69;90.88;96217.72;5027359;28;20077;-76
2021/11/10 09:25:51;;;;;;;14.15;6.50;;;;;;;3.82;90.76;96217.63;5025134;28;20455;-77
2021/11/10 09:28:19;;;;;;;13.75;6.47;;;;;;;3.92;90.13;96223.22;5023483;28;20388;-76
2021/11/10 09:30:49;;;;;;;12.80;6.38;;;;;;;4.04;90.08;96225.13;5028417;28;20399;-77
2021/11/10 09:33:15;;;;;;;11.15;6.28;;;;;;;4.30;88.34;96224.97;5025704;28;20384;-76
2021/11/10 09:35:42;;;;;;;14.05;7.80;;;;;;;4.58;87.61;96226.34;5026597;28;20056;-76
2021/11/10 09:38:08;;;;;;;14.60;6.90;;;;;;;4.59;87.94;96217.53;5021576;28;20037;-76
2021/11/10 09:40:37;;;;;;;16.25;7.32;;;;;;;4.48;87.88;96219.03;5009842;28;20056;-76
2021/11/10 09:43:04;;;;;;;13.90;6.38;;;;;;;4.30;88.95;96214.53;5014159;28;20117;-77
2021/11/10 09:45:33;;;;;;;14.32;6.55;;;;;;;4.22;89.68;96222.59;5017004;28;20729;-77
2021/11/10 09:48:01;;;;;;;14.68;7.00;;;;;;;4.36;89.06;96230.34;5029038;28;20589;-77
2021/11/10 09:50:27;;;;;;;13.35;6.45;;;;;;;4.71;86.02;96229.84;5028442;28;20087;-77
2021/11/10 09:52:54;;;;;;;11.10;5.97;;;;;;;4.88;84.61;96223.06;5027857;28;20045;-76
2021/11/10 09:55:23;;;;;;;16.30;6.90;;;;;;;4.64;87.63;96225.50;5027331;28;20065;-79
2021/11/10 09:57:50;;;;;;;14.93;6.88;;;;;;;4.89;86.65;96222.06;5028170;28;20457;-80
2021/11/10 10:00:21;;;;;;;13.60;6.50;;;;;;;4.99;85.56;96217.16;5026938;28;20041;-76
2021/11/10 10:02:48;;;;;;;14.30;6.47;;;;;;;4.68;86.81;96216.25;5022520;28;20467;-76
2021/11/10 10:05:18;;;;;;;14.50;6.15;;;;;;;4.74;89.86;96214.59;5020789;28;20041;-76
2021/11/10 10:07:49;;;;;;;12.57;6.25;;;;;;;4.83;88.49;96217.72;5027094;28;20044;-76
2021/11/10 10:10:16;;;;;;;14.85;6.28;;;;;;;4.80;90.82;96199.91;5027342;28;20125;-76
2021/11/10 10:12:41;;;;;;;12.63;6.47;;;;;;;4.84;89.06;96198.44;5027574;28;20094;-76
2021/11/10 10:15:09;;;;;;;18.63;6.47;;;;;;;4.81;87.59;96198.88;5018187;28;20049;-77
2021/11/10 10:17:42;;;;;;;12.82;6.47;;;;;;;4.86;90.45;96183.38;5015245;28;20125;-77
2021/11/10 10:20:26;;;;;;;17.80;6.90;;;;;;;4.79;90.71;96169.63;5027439;28;20045;-77
2021/11/10 10:22:54;;;;;;;17.27;6.85;;;;;;;5.22;88.88;96163.53;5014154;28;20046;-77
2021/11/10 10:25:20;;;;;;;18.98;7.32;;;;;;;5.51;86.33;96175.00;5009199;28;20449;-77
2021/11/10 10:27:55;;;;;;;15.05;7.10;;;;;;;5.72;85.56;96168.53;5022500;28;20045;-77
2021/11/10 10:30:32;;;;;;;15.88;6.50;;;;;;;5.85;84.11;96170.16;5018216;28;20056;-77
2021/11/10 10:33:12;;;;;;;11.15;6.32;;;;;;;5.64;84.62;96168.81;5025615;28;20046;-76
2021/11/10 10:35:45;;;;;;;17.05;6.63;;;;;;;6.02;83.20;96182.59;5023792;28;20048;-76
2021/11/10 10:38:15;;;;;;;17.40;7.10;;;;;;;6.10;82.99;96173.66;5015501;28;20518;-76
2021/11/10 10:40:44;;;;;;;13.57;6.30;;;;;;;5.87;81.67;96164.69;5024819;28;20042;-76
2021/11/10 10:43:09;;;;;;;16.15;6.72;;;;;;;5.67;84.44;96157.94;5013286;28;20415;-77
2021/11/10 10:45:50;;;;;;;13.32;6.63;;;;;;;5.61;87.56;96140.53;5017014;28;20050;-77
2021/11/10 10:48:22;;;;;;;12.35;6.85;;;;;;;5.83;86.39;96140.03;5027493;28;20499;-77
2021/11/10 10:50:57;;;;;;;18.83;7.05;;;;;;;5.79;87.47;96131.88;5027507;28;20077;-77
2021/11/10 10:53:48;;;;;;;14.50;6.15;;;;;;;5.90;87.75;96127.69;5026028;28;20049;-76
2021/11/10 10:56:29;;;;;;;17.17;6.05;;;;;;;5.96;85.13;96116.34;5026691;28;20188;-77
2021/11/10 10:59:04;;;;;;;12.80;6.43;;;;;;;6.02;88.20;96131.16;5042773;28;20479;-77
2021/11/10 11:01:32;;;;;;;;;;;;;;;6.39;82.37;96130.97;5026305;28;20046;-77
2021/11/10 11:04:20;;;;;;;11.55;5.93;;;;;;;6.38;84.39;96124.13;5027210;28;19925;-77
2021/11/10 11:06:58;;;;;;;13.77;6.68;;;;;;;6.03;86.09;96111.84;5029635;28;20038;-76
2021/11/10 11:09:31;;;;;;;17.90;7.05;;;;;;;5.97;88.04;96123.19;5011529;28;20119;-77
2021/11/10 11:17:22;;;;;;;11.35;6.05;;;;;;;6.10;88.14;96131.84;5027964;28;19933;-77
2021/11/10 11:20:02;;;;;;;13.93;5.70;;;;;;;6.05;87.64;96130.69;5027088;28;20042;-77
2021/11/10 11:22:32;;;;;;;13.18;5.40;;;;;;;6.11;86.83;96117.78;5039908;28;20115;-77
2021/11/10 11:25:08;;;;;;;13.18;5.22;;;;;;;6.16;88.38;96115.25;5014279;28;20654;-76
2021/11/10 11:27:34;;;;;;;10.07;4.70;;;;;;;6.20;89.12;96127.63;5023301;28;20057;-76
2021/11/10 11:30:13;;;;;;;11.10;5.18;;;;;;;6.26;88.77;96122.53;5030307;28;20410;-76